Time;durP1;ratioP1;P1;durP2;ratioP2;P2;SDS_P1;SDS_P2;PMS_P1;PMS_P2;Temp;Humidity;BMP_temperature;BMP_pressure;BME280_temperature;BME280_humidity;BME280_pressure;Samples;Min_cycle;Max_cycle;Signal;HPM_P1;HPM_P2
2021/05/04 00:02:24;;;;;;;9.55;2.85;;;26.00;89.70;;;;;;5108813;28;20020;-53
2021/05/04 00:04:51;;;;;;;7.22;2.53;;;26.00;90.00;;;;;;5105833;28;20166;-51
2021/05/04 00:07:19;;;;;;;8.50;3.63;;;26.00;90.20;;;;;;5107466;28;20026;-55
2021/05/04 00:09:45;;;;;;;6.43;3.90;;;26.00;90.50;;;;;;5107909;28;20032;-55
2021/05/04 00:12:12;;;;;;;7.97;4.53;;;26.00;90.70;;;;;;5088677;28;20361;-51
2021/05/04 00:14:40;;;;;;;10.18;4.30;;;26.00;90.80;;;;;;5108051;28;20032;-52
2021/05/04 00:17:07;;;;;;;13.32;7.55;;;26.00;90.90;;;;;;5105778;28;20016;-50
2021/05/04 00:19:37;;;;;;;10.23;5.50;;;25.90;91.00;;;;;;5088496;28;20343;-56
2021/05/04 00:22:04;;;;;;;8.45;4.20;;;25.90;90.90;;;;;;5106261;28;20024;-52
2021/05/04 00:24:35;;;;;;;9.65;5.10;;;25.90;91.10;;;;;;5087010;28;20108;-50
2021/05/04 00:27:03;;;;;;;7.03;5.10;;;25.80;91.20;;;;;;5103153;28;20304;-55
2021/05/04 00:29:31;;;;;;;9.82;4.85;;;25.80;91.20;;;;;;5087916;28;20028;-56
2021/05/04 00:32:00;;;;;;;9.30;4.25;;;25.80;91.20;;;;;;5102915;28;20012;-53
2021/05/04 00:34:27;;;;;;;7.28;3.58;;;25.70;91.20;;;;;;5104779;28;20023;-48
2021/05/04 00:36:56;;;;;;;7.47;3.10;;;25.70;91.30;;;;;;5105253;28;20078;-50
2021/05/04 00:39:27;;;;;;;7.25;2.97;;;25.70;91.40;;;;;;5105687;28;20177;-49
2021/05/04 00:41:53;;;;;;;13.25;3.28;;;25.70;91.40;;;;;;5105951;28;20075;-58
2021/05/04 00:44:20;;;;;;;19.02;4.68;;;25.70;91.40;;;;;;5105322;28;20410;-47
2021/05/04 00:46:47;;;;;;;28.75;5.68;;;25.60;91.30;;;;;;5087192;28;20106;-48
2021/05/04 00:49:13;;;;;;;17.90;4.97;;;25.60;91.40;;;;;;5087034;28;20224;-54
2021/05/04 00:51:43;;;;;;;12.65;3.58;;;25.60;91.60;;;;;;5086901;28;20024;-52
2021/05/04 00:54:11;;;;;;;12.35;3.78;;;25.50;91.70;;;;;;5104852;28;20330;-54
2021/05/04 00:56:40;;;;;;;42.53;10.50;;;25.50;91.70;;;;;;5104717;28;20020;-47
2021/05/04 00:59:08;;;;;;;22.58;10.38;;;25.50;91.70;;;;;;5104980;28;20020;-50
2021/05/04 01:01:36;;;;;;;17.38;7.85;;;25.50;91.80;;;;;;5104162;28;20316;-55
2021/05/04 01:04:04;;;;;;;18.80;7.78;;;25.50;91.90;;;;;;5115911;28;20054;-51
2021/05/04 01:06:31;;;;;;;16.05;6.55;;;25.50;91.90;;;;;;5090193;28;20020;-55
2021/05/04 01:08:57;;;;;;;10.90;5.53;;;25.50;92.00;;;;;;5123603;28;20031;-55
2021/05/04 01:11:24;;;;;;;11.68;4.45;;;25.40;92.10;;;;;;5133303;27;20042;-53
2021/05/04 01:13:54;;;;;;;10.60;4.45;;;25.40;92.00;;;;;;5129836;27;20035;-50
2021/05/04 01:16:21;;;;;;;23.90;13.02;;;25.40;91.90;;;;;;5133591;27;20073;-48
2021/05/04 01:18:48;;;;;;;14.35;8.10;;;25.40;91.90;;;;;;5133103;27;20111;-48
2021/05/04 01:21:15;;;;;;;10.68;5.30;;;25.40;92.20;;;;;;5135905;27;20326;-52
2021/05/04 01:23:42;;;;;;;13.35;5.10;;;25.40;91.90;;;;;;5129453;27;20030;-53
2021/05/04 01:26:08;;;;;;;12.88;4.72;;;25.30;91.90;;;;;;5124594;28;20024;-50
2021/05/04 01:28:35;;;;;;;9.13;3.72;;;25.30;92.00;;;;;;5124706;28;20027;-53
2021/05/04 01:31:02;;;;;;;10.95;3.40;;;25.30;92.10;;;;;;5124312;28;20019;-51
2021/05/04 01:33:28;;;;;;;8.05;3.83;;;25.20;92.00;;;;;;5124560;28;20062;-58
2021/05/04 01:35:56;;;;;;;8.75;3.30;;;25.20;92.00;;;;;;5132741;27;20181;-51
2021/05/04 01:38:23;;;;;;;8.38;2.90;;;25.20;92.00;;;;;;5122626;28;20027;-53
2021/05/04 01:40:50;;;;;;;12.48;2.65;;;25.20;91.90;;;;;;5124067;28;20022;-50
2021/05/04 01:43:18;;;;;;;9.77;2.28;;;25.20;91.80;;;;;;5124282;28;20318;-48
2021/05/04 01:45:46;;;;;;;9.20;2.80;;;25.10;91.80;;;;;;5124086;28;20015;-52
2021/05/04 01:48:13;;;;;;;4.63;2.55;;;25.10;91.80;;;;;;5103577;28;20030;-48
2021/05/04 01:50:39;;;;;;;10.35;3.33;;;25.10;91.90;;;;;;5105927;28;20250;-51
2021/05/04 01:53:06;;;;;;;13.93;3.00;;;25.10;92.10;;;;;;5105706;28;20068;-56
2021/05/04 01:55:33;;;;;;;7.63;3.17;;;25.00;92.10;;;;;;5121195;28;20034;-49
2021/05/04 01:57:59;;;;;;;9.07;2.97;;;25.00;92.30;;;;;;5123807;28;20080;-52
2021/05/04 02:00:26;;;;;;;7.25;3.45;;;25.00;92.50;;;;;;5124022;28;20304;-50
2021/05/04 02:02:53;;;;;;;5.40;2.53;;;25.00;92.60;;;;;;5121137;28;20019;-50
2021/05/04 02:05:19;;;;;;;17.02;3.15;;;25.00;92.60;;;;;;5123780;28;20238;-48
2021/05/04 02:07:46;;;;;;;13.25;3.72;;;25.00;92.70;;;;;;5126529;27;20039;-48
2021/05/04 02:10:13;;;;;;;8.95;3.15;;;25.10;92.70;;;;;;5090070;28;20032;-50
2021/05/04 02:12:41;;;;;;;9.95;2.67;;;25.00;92.70;;;;;;5123622;28;20015;-51
2021/05/04 02:15:08;;;;;;;6.82;2.53;;;25.00;92.60;;;;;;5125334;27;20015;-52
2021/05/04 02:17:35;;;;;;;8.77;2.28;;;25.00;92.70;;;;;;5120851;28;20011;-54
2021/05/04 02:20:03;;;;;;;10.48;2.10;;;25.00;92.70;;;;;;5123645;28;20011;-47
2021/05/04 02:22:30;;;;;;;8.15;1.88;;;25.00;92.80;;;;;;5127155;27;20241;-48
2021/05/04 02:24:58;;;;;;;6.55;2.00;;;25.00;92.80;;;;;;5123453;28;20061;-54
2021/05/04 02:27:24;;;;;;;7.15;2.28;;;24.90;92.90;;;;;;5122947;28;20032;-51
2021/05/04 02:29:51;;;;;;;8.40;1.90;;;25.00;92.80;;;;;;5123824;28;20027;-56
2021/05/04 02:32:18;;;;;;;9.13;2.00;;;25.00;92.70;;;;;;5123573;28;20016;-56
2021/05/04 02:34:44;;;;;;;9.80;1.98;;;25.00;92.60;;;;;;5124271;28;20042;-52
2021/05/04 02:37:11;;;;;;;6.00;1.85;;;25.00;92.60;;;;;;5123399;28;20020;-56
2021/05/04 02:39:37;;;;;;;9.30;2.33;;;25.00;92.60;;;;;;5105935;28;20034;-58
2021/05/04 02:42:04;;;;;;;15.07;2.20;;;25.10;92.60;;;;;;5105975;28;20035;-54
2021/05/04 02:44:31;;;;;;;6.95;1.60;;;25.10;92.60;;;;;;5124015;28;20047;-54
2021/05/04 02:46:58;;;;;;;7.20;1.65;;;25.10;92.50;;;;;;5123449;28;20319;-53
2021/05/04 02:49:25;;;;;;;11.55;1.92;;;25.10;92.40;;;;;;5123783;28;20023;-56
2021/05/04 02:51:52;;;;;;;9.02;1.70;;;25.10;92.40;;;;;;5123192;28;20023;-57
2021/05/04 02:54:18;;;;;;;10.85;1.73;;;25.10;92.40;;;;;;5123629;28;20039;-55
2021/05/04 02:56:45;;;;;;;4.95;1.00;;;25.10;92.40;;;;;;5123643;28;20093;-55
2021/05/04 02:59:13;;;;;;;8.23;1.33;;;25.10;92.50;;;;;;5123401;28;20027;-56
2021/05/04 03:01:40;;;;;;;4.05;1.33;;;25.10;92.40;;;;;;5119934;28;20050;-55
2021/05/04 03:04:06;;;;;;;7.55;1.10;;;25.10;92.40;;;;;;5123086;28;20051;-54
2021/05/04 03:06:33;;;;;;;8.57;1.00;;;25.10;92.50;;;;;;5104608;28;20030;-61
2021/05/04 03:09:00;;;;;;;7.78;2.22;;;25.10;92.50;;;;;;5120599;28;20234;-57
2021/05/04 03:11:26;;;;;;;14.13;8.55;;;25.10;92.40;;;;;;5122687;28;20023;-55
2021/05/04 03:13:54;;;;;;;29.08;19.73;;;25.10;92.30;;;;;;5105992;28;20026;-57
2021/05/04 03:16:21;;;;;;;18.15;12.55;;;25.10;92.20;;;;;;5122082;28;20026;-55
2021/05/04 03:18:48;;;;;;;20.08;11.98;;;25.10;92.20;;;;;;5123568;28;20080;-62
2021/05/04 03:21:15;;;;;;;25.95;15.48;;;25.10;92.20;;;;;;5123381;28;20020;-54
2021/05/04 03:23:41;;;;;;;29.92;21.23;;;25.10;92.20;;;;;;5123240;28;20032;-58
2021/05/04 03:26:08;;;;;;;35.00;25.42;;;25.10;92.10;;;;;;5123471;28;20083;-58
2021/05/04 03:28:34;;;;;;;26.02;15.27;;;25.10;92.10;;;;;;5123579;28;20099;-55
2021/05/04 03:31:01;;;;;;;21.00;12.70;;;25.10;92.10;;;;;;5123602;28;20243;-54
2021/05/04 03:33:28;;;;;;;17.35;8.63;;;25.10;92.10;;;;;;5123532;28;20312;-54
2021/05/04 03:35:54;;;;;;;14.43;7.28;;;25.10;92.00;;;;;;5123307;28;20050;-54
2021/05/04 03:38:21;;;;;;;10.35;5.57;;;25.10;92.00;;;;;;5124833;28;20035;-62
2021/05/04 03:40:48;;;;;;;8.32;3.92;;;25.10;92.00;;;;;;5126922;28;20039;-54
2021/05/04 03:43:14;;;;;;;9.02;3.58;;;25.10;92.10;;;;;;5127266;28;20024;-61
2021/05/04 03:45:41;;;;;;;8.77;2.47;;;25.00;92.10;;;;;;5127516;28;20026;-54
2021/05/04 03:48:08;;;;;;;9.60;2.72;;;25.00;92.10;;;;;;5127661;28;20028;-54
2021/05/04 03:50:34;;;;;;;9.25;2.60;;;25.00;92.20;;;;;;5127543;28;20042;-54
2021/05/04 03:53:01;;;;;;;9.18;1.88;;;25.00;92.10;;;;;;5127263;28;20039;-56
2021/05/04 03:55:28;;;;;;;9.05;1.40;;;25.00;92.10;;;;;;5127519;28;20211;-55
2021/05/04 03:57:56;;;;;;;6.57;1.60;;;25.00;92.10;;;;;;5127530;28;20055;-54
2021/05/04 04:00:23;;;;;;;6.00;1.23;;;25.00;92.10;;;;;;5127380;28;20020;-56
2021/05/04 04:02:51;;;;;;;4.40;0.98;;;25.00;92.00;;;;;;5127297;28;20019;-54
2021/05/04 04:05:18;;;;;;;5.75;1.00;;;25.00;92.00;;;;;;5127119;28;20054;-54
2021/05/04 04:07:45;;;;;;;7.72;1.15;;;25.00;92.00;;;;;;5127143;28;20062;-53
2021/05/04 04:10:12;;;;;;;8.57;0.70;;;24.90;92.00;;;;;;5127131;28;20094;-57
2021/05/04 04:12:42;;;;;;;8.15;0.98;;;25.00;92.00;;;;;;5127119;28;20354;-58
2021/05/04 04:15:09;;;;;;;6.80;0.50;;;24.90;92.00;;;;;;5127181;28;20086;-59
2021/05/04 04:17:36;;;;;;;5.30;0.80;;;25.00;92.10;;;;;;5126841;28;20042;-55
2021/05/04 04:20:04;;;;;;;4.97;0.50;;;24.90;92.10;;;;;;5126952;28;20086;-54
2021/05/04 04:22:31;;;;;;;10.25;0.75;;;24.90;92.00;;;;;;5126910;28;20276;-54
2021/05/04 04:24:57;;;;;;;7.03;0.60;;;24.90;92.00;;;;;;5126978;28;20030;-55
2021/05/04 04:27:24;;;;;;;3.47;0.60;;;24.90;92.00;;;;;;5126864;28;20246;-54
2021/05/04 04:29:51;;;;;;;5.10;0.50;;;24.90;91.90;;;;;;5127177;28;20206;-54
2021/05/04 04:32:17;;;;;;;6.57;0.70;;;24.90;91.90;;;;;;5126754;28;20320;-55
2021/05/04 04:34:44;;;;;;;4.60;0.30;;;24.90;91.90;;;;;;5127338;28;20303;-55
2021/05/04 04:37:11;;;;;;;4.40;0.47;;;24.90;92.00;;;;;;5126647;28;20078;-56
2021/05/04 04:39:37;;;;;;;5.88;0.60;;;24.90;91.90;;;;;;5127028;28;20015;-58
2021/05/04 04:42:04;;;;;;;5.50;0.75;;;24.90;91.90;;;;;;5126647;28;20020;-59
2021/05/04 04:44:31;;;;;;;9.05;0.50;;;24.90;91.90;;;;;;5126840;28;20172;-55
2021/05/04 04:46:59;;;;;;;3.17;0.30;;;24.90;91.90;;;;;;5126494;28;20026;-56
2021/05/04 04:49:25;;;;;;;5.97;0.45;;;24.90;91.90;;;;;;5126550;28;20026;-54
2021/05/04 04:51:52;;;;;;;11.55;0.68;;;24.80;91.70;;;;;;5126531;28;20026;-55
2021/05/04 04:54:19;;;;;;;6.55;0.50;;;24.80;91.70;;;;;;5126628;28;20083;-55
2021/05/04 04:56:45;;;;;;;5.28;0.60;;;24.80;91.70;;;;;;5126222;28;20024;-54
2021/05/04 04:59:12;;;;;;;5.85;0.50;;;24.80;91.70;;;;;;5126569;28;20255;-55
2021/05/04 05:01:39;;;;;;;7.07;0.55;;;24.90;91.70;;;;;;5126157;28;20027;-55
2021/05/04 05:04:06;;;;;;;6.65;0.52;;;24.90;91.60;;;;;;5108430;28;20062;-58
2021/05/04 05:06:34;;;;;;;4.45;0.43;;;24.80;91.60;;;;;;5126109;28;20076;-55
2021/05/04 05:09:02;;;;;;;4.53;0.57;;;24.80;91.60;;;;;;5126232;28;20031;-54
2021/05/04 05:11:28;;;;;;;6.03;0.40;;;24.80;91.60;;;;;;5126053;28;20016;-55
2021/05/04 05:13:56;;;;;;;3.35;0.50;;;24.80;91.50;;;;;;5126356;28;20028;-55
2021/05/04 05:16:23;;;;;;;8.13;0.73;;;24.80;91.50;;;;;;5125839;28;20023;-54
2021/05/04 05:18:51;;;;;;;9.02;0.40;;;24.80;91.40;;;;;;5125970;28;20038;-58
2021/05/04 05:21:19;;;;;;;7.15;0.77;;;24.80;91.40;;;;;;5125753;28;20243;-54
2021/05/04 05:23:46;;;;;;;4.97;0.50;;;24.80;91.30;;;;;;5125947;28;20027;-58
2021/05/04 05:26:13;;;;;;;7.30;0.50;;;24.80;91.30;;;;;;5125769;28;20027;-60
2021/05/04 05:28:39;;;;;;;5.72;0.47;;;24.80;91.20;;;;;;5125638;28;20019;-61
2021/05/04 05:31:06;;;;;;;4.22;0.40;;;24.80;91.10;;;;;;5125534;28;20258;-54
2021/05/04 05:33:33;;;;;;;8.10;0.52;;;24.80;91.10;;;;;;5125706;28;20367;-55
2021/05/04 05:36:00;;;;;;;7.82;0.55;;;24.80;91.10;;;;;;5125594;28;20334;-56
2021/05/04 05:38:28;;;;;;;5.82;0.50;;;24.80;91.00;;;;;;5125395;28;20028;-55
2021/05/04 05:40:55;;;;;;;6.68;0.40;;;24.70;90.90;;;;;;5125360;28;20079;-60
2021/05/04 05:43:24;;;;;;;4.97;0.30;;;24.70;90.90;;;;;;5125608;28;20192;-54
2021/05/04 05:45:51;;;;;;;2.47;0.43;;;24.80;90.90;;;;;;5125164;28;20016;-55
2021/05/04 05:48:17;;;;;;;6.38;0.45;;;24.70;90.80;;;;;;5125472;28;20031;-56
2021/05/04 05:50:44;;;;;;;4.85;0.50;;;24.70;90.70;;;;;;5125214;28;20031;-58
2021/05/04 05:53:11;;;;;;;6.95;0.60;;;24.70;90.70;;;;;;5125320;28;20027;-61
2021/05/04 05:55:37;;;;;;;3.42;0.30;;;24.70;90.60;;;;;;5125417;28;20015;-54
2021/05/04 05:58:04;;;;;;;6.25;0.30;;;24.70;90.70;;;;;;5125226;28;20026;-56
2021/05/04 06:00:31;;;;;;;5.07;0.40;;;24.70;90.60;;;;;;5124275;28;20024;-55
2021/05/04 06:03:02;;;;;;;3.97;0.60;;;24.70;90.60;;;;;;5125322;28;20051;-59
2021/05/04 06:05:29;;;;;;;3.85;0.32;;;24.60;90.50;;;;;;5124716;28;20077;-54
2021/05/04 06:07:56;;;;;;;10.88;0.50;;;24.60;90.50;;;;;;5124958;28;20312;-56
2021/05/04 06:10:23;;;;;;;6.68;0.50;;;24.60;90.60;;;;;;5124955;28;20023;-58
2021/05/04 06:12:59;;;;;;;4.55;0.30;;;24.60;90.50;;;;;;5124827;28;20024;-55
2021/05/04 06:15:26;;;;;;;7.68;0.70;;;24.60;90.60;;;;;;5124667;28;20015;-60
2021/05/04 06:17:53;;;;;;;4.85;0.40;;;24.60;90.60;;;;;;5124759;28;20027;-54
2021/05/04 06:20:19;;;;;;;4.78;0.35;;;24.60;90.60;;;;;;5124622;28;20015;-60
2021/05/04 06:22:46;;;;;;;5.38;0.55;;;24.60;90.70;;;;;;5124606;28;20032;-54
2021/05/04 06:25:13;;;;;;;5.38;0.47;;;24.60;90.80;;;;;;5124850;28;20057;-59
2021/05/04 06:27:40;;;;;;;1.73;0.32;;;24.60;90.70;;;;;;5124679;28;20087;-56
2021/05/04 06:30:08;;;;;;;8.32;0.40;;;24.50;90.70;;;;;;5124596;28;20030;-60
2021/05/04 06:32:36;;;;;;;4.03;0.32;;;24.50;90.70;;;;;;5124521;28;20041;-55
2021/05/04 06:35:03;;;;;;;7.55;0.90;;;24.50;90.70;;;;;;5124590;28;20339;-56
2021/05/04 06:37:29;;;;;;;4.93;0.40;;;24.50;90.80;;;;;;5124232;28;20035;-55
2021/05/04 06:39:56;;;;;;;1.77;0.32;;;24.50;90.80;;;;;;5124444;28;20016;-56
2021/05/04 06:42:22;;;;;;;6.13;0.40;;;24.50;90.80;;;;;;5124439;28;20019;-56
2021/05/04 06:44:49;;;;;;;7.72;0.52;;;24.50;90.80;;;;;;5124789;28;20024;-57
2021/05/04 06:47:16;;;;;;;5.47;0.50;;;24.50;90.80;;;;;;5124444;28;20016;-54
2021/05/04 06:49:44;;;;;;;5.03;0.50;;;24.50;90.80;;;;;;5124932;28;20027;-54
2021/05/04 06:52:11;;;;;;;6.13;0.40;;;24.40;90.90;;;;;;5124115;28;20027;-56
2021/05/04 06:54:40;;;;;;;8.18;0.68;;;24.50;91.00;;;;;;5124798;28;20023;-53
2021/05/04 06:57:06;;;;;;;3.85;0.50;;;24.40;91.10;;;;;;5124297;28;20016;-53
2021/05/04 06:59:33;;;;;;;5.20;0.40;;;24.40;91.10;;;;;;5124581;28;20054;-56
2021/05/04 07:01:59;;;;;;;5.30;0.50;;;24.40;91.20;;;;;;5124286;28;20020;-60
2021/05/04 07:04:27;;;;;;;4.97;0.98;;;24.40;91.20;;;;;;5124297;28;20217;-55
2021/05/04 07:06:53;;;;;;;10.07;0.50;;;24.30;91.20;;;;;;5124150;28;20020;-55
2021/05/04 07:09:20;;;;;;;7.25;0.50;;;24.40;91.30;;;;;;5124642;28;20069;-55
2021/05/04 07:11:46;;;;;;;10.88;0.65;;;24.30;91.30;;;;;;5124845;28;20045;-56
2021/05/04 07:14:13;;;;;;;7.38;0.65;;;24.30;91.40;;;;;;5128553;28;20027;-55
2021/05/04 07:16:40;;;;;;;4.10;0.47;;;24.30;91.40;;;;;;5128389;28;20027;-56
2021/05/04 07:19:07;;;;;;;7.38;1.10;;;24.30;91.40;;;;;;5128575;28;20024;-55
2021/05/04 07:21:34;;;;;;;5.10;0.75;;;24.30;91.50;;;;;;5128083;28;20019;-57
2021/05/04 07:24:01;;;;;;;6.15;0.77;;;24.30;91.50;;;;;;5128389;28;20035;-56
2021/05/04 07:26:28;;;;;;;5.85;0.60;;;24.30;91.40;;;;;;5128066;28;20042;-55
2021/05/04 07:28:54;;;;;;;5.82;0.30;;;24.30;91.40;;;;;;5128333;28;20023;-57
2021/05/04 07:31:21;;;;;;;5.40;0.30;;;24.30;91.30;;;;;;5128207;28;20028;-55
2021/05/04 07:33:48;;;;;;;5.13;0.45;;;24.30;91.30;;;;;;5128198;28;20031;-62
2021/05/04 07:36:15;;;;;;;8.18;0.77;;;24.30;91.40;;;;;;5127836;28;20048;-59
2021/05/04 07:38:41;;;;;;;2.85;0.30;;;24.20;91.40;;;;;;5127934;28;20028;-57
2021/05/04 07:41:08;;;;;;;9.30;0.55;;;24.20;91.40;;;;;;5127802;28;20030;-58
2021/05/04 07:43:36;;;;;;;7.53;0.65;;;24.20;91.60;;;;;;5127869;28;20210;-56
2021/05/04 07:46:02;;;;;;;6.10;0.50;;;24.20;91.30;;;;;;5127547;28;20235;-56
2021/05/04 07:48:30;;;;;;;3.65;0.32;;;24.20;91.40;;;;;;5127944;28;20027;-55
2021/05/04 07:50:56;;;;;;;8.00;0.70;;;24.20;91.40;;;;;;5127585;28;20384;-55
2021/05/04 07:53:23;;;;;;;6.07;0.55;;;24.30;91.40;;;;;;5127946;28;20292;-59
2021/05/04 07:55:50;;;;;;;4.45;0.45;;;24.20;91.40;;;;;;5127620;28;20030;-60
2021/05/04 07:58:17;;;;;;;0.77;0.28;;;24.20;91.50;;;;;;5127473;28;20110;-56
2021/05/04 08:00:43;;;;;;;8.10;0.50;;;24.30;91.50;;;;;;5127382;28;20016;-55
2021/05/04 08:03:12;;;;;;;5.07;0.50;;;24.20;91.60;;;;;;5127465;28;20075;-55
2021/05/04 08:05:38;;;;;;;4.80;0.70;;;24.20;91.70;;;;;;5127134;28;20100;-57
2021/05/04 08:08:05;;;;;;;3.13;0.40;;;24.20;91.70;;;;;;5127347;28;20042;-62
2021/05/04 08:10:34;;;;;;;4.47;0.40;;;24.20;91.70;;;;;;5127313;28;20012;-61
2021/05/04 08:13:03;;;;;;;5.30;0.40;;;24.20;91.80;;;;;;5127238;28;20020;-56
2021/05/04 08:15:30;;;;;;;5.50;0.40;;;24.20;91.80;;;;;;5127000;28;20312;-57
2021/05/04 08:17:59;;;;;;;6.05;0.47;;;24.20;91.80;;;;;;5127275;28;20039;-55
2021/05/04 08:20:30;;;;;;;10.40;0.70;;;24.20;91.80;;;;;;5127337;28;20208;-57
2021/05/04 08:22:57;;;;;;;9.83;0.53;;;24.20;91.80;;;;;;5127097;28;20347;-61
2021/05/04 08:25:25;;;;;;;9.80;0.70;;;24.20;91.80;;;;;;5126377;28;20023;-63
2021/05/04 08:27:52;;;;;;;9.48;0.77;;;24.20;91.80;;;;;;5126808;28;20031;-58
2021/05/04 08:30:19;;;;;;;10.20;0.75;;;24.20;91.80;;;;;;5126939;28;20027;-55
2021/05/04 08:32:47;;;;;;;7.45;0.57;;;24.20;91.90;;;;;;5126942;28;20027;-56
2021/05/04 08:35:14;;;;;;;6.40;0.50;;;24.20;91.90;;;;;;5126931;28;20034;-55
2021/05/04 08:37:41;;;;;;;4.70;0.38;;;24.20;91.90;;;;;;5126845;28;20081;-57
2021/05/04 08:40:09;;;;;;;10.75;0.57;;;24.20;92.10;;;;;;5126804;28;20117;-56
2021/05/04 08:42:35;;;;;;;6.78;0.40;;;24.20;91.90;;;;;;5126598;28;20012;-57
2021/05/04 08:45:05;;;;;;;8.90;0.65;;;24.20;91.90;;;;;;5126454;28;20035;-57
2021/05/04 08:47:32;;;;;;;5.72;0.75;;;24.20;91.90;;;;;;5126747;28;20308;-55
2021/05/04 08:49:59;;;;;;;5.30;0.77;;;24.20;91.90;;;;;;5126300;28;20084;-54
2021/05/04 08:52:26;;;;;;;4.07;0.60;;;24.10;91.90;;;;;;5126579;28;20360;-56
2021/05/04 08:54:53;;;;;;;5.25;0.50;;;24.10;91.90;;;;;;5126710;28;20035;-60
2021/05/04 08:57:20;;;;;;;5.03;0.55;;;24.10;92.00;;;;;;5126244;28;20015;-57
2021/05/04 08:59:47;;;;;;;11.32;1.00;;;24.10;91.90;;;;;;5126836;28;20023;-54
2021/05/04 09:02:14;;;;;;;5.70;0.60;;;24.10;91.90;;;;;;5126307;28;20023;-55
2021/05/04 09:04:58;;;;;;;10.98;0.90;;;24.00;91.90;;;;;;5117188;28;20068;-55
2021/05/04 09:07:30;;;;;;;6.35;0.80;;;24.10;91.90;;;;;;5105698;28;20024;-58
2021/05/04 09:13:04;;;;;;;11.63;0.70;;;24.10;92.00;;;;;;5070709;28;20104;-55
2021/05/04 09:21:35;;;;;;;7.43;2.33;;;24.00;91.90;;;;;;5105505;28;20009;-55
2021/05/04 09:24:50;;;;;;;9.45;3.50;;;24.00;91.90;;;;;;5088907;28;20099;-56
2021/05/04 09:27:18;;;;;;;12.82;5.55;;;24.00;92.10;;;;;;5048092;28;20036;-55
2021/05/04 09:29:53;;;;;;;10.27;6.03;;;24.00;92.10;;;;;;5105839;28;20131;-58
2021/05/04 09:32:29;;;;;;;4.97;2.42;;;23.90;92.00;;;;;;5105308;28;20324;-58
2021/05/04 09:35:05;;;;;;;4.95;1.20;;;24.00;92.10;;;;;;5104747;28;20101;-58
2021/05/04 09:37:44;;;;;;;4.70;1.30;;;24.00;92.10;;;;;;5104759;28;20031;-53
2021/05/04 09:40:39;;;;;;;7.18;1.50;;;24.00;92.10;;;;;;5105076;28;20012;-59
2021/05/04 09:43:17;;;;;;;9.25;1.40;;;24.00;92.10;;;;;;5102437;28;20039;-55
2021/05/04 09:45:50;;;;;;;4.15;0.77;;;23.90;92.10;;;;;;5104799;28;20020;-56
2021/05/04 09:48:40;;;;;;;10.38;1.17;;;23.90;92.00;;;;;;5105155;28;20352;-60
2021/05/04 09:51:16;;;;;;;5.57;1.20;;;23.90;92.10;;;;;;5104731;28;20024;-54
2021/05/04 09:53:48;;;;;;;6.15;0.88;;;23.90;92.00;;;;;;5105058;28;20032;-62
2021/05/04 09:56:29;;;;;;;7.32;1.08;;;23.90;92.00;;;;;;5105063;28;20056;-55
2021/05/04 09:58:56;;;;;;;10.55;3.35;;;23.90;92.00;;;;;;5105057;28;20219;-55
2021/05/04 10:01:22;;;;;;;10.95;2.50;;;23.90;91.90;;;;;;5104799;28;20016;-58
2021/05/04 10:03:52;;;;;;;8.43;1.75;;;23.90;91.80;;;;;;5104677;28;20027;-53
2021/05/04 10:06:21;;;;;;;9.13;1.67;;;23.90;91.90;;;;;;5104654;28;20223;-55
2021/05/04 10:08:49;;;;;;;7.68;1.80;;;23.90;91.90;;;;;;5104845;28;20024;-62
2021/05/04 10:11:18;;;;;;;7.50;1.38;;;23.90;91.90;;;;;;5104508;28;20034;-62
2021/05/04 10:13:45;;;;;;;3.95;1.15;;;23.90;91.90;;;;;;5104709;28;20020;-54
2021/05/04 10:16:12;;;;;;;6.07;1.60;;;23.90;92.00;;;;;;5104573;28;20020;-54
2021/05/04 10:18:39;;;;;;;9.68;1.48;;;23.90;92.00;;;;;;5104532;28;20027;-54
2021/05/04 10:21:08;;;;;;;8.40;1.38;;;23.90;91.90;;;;;;5104399;28;20051;-53
2021/05/04 10:23:37;;;;;;;5.88;0.90;;;23.90;91.90;;;;;;5104664;28;20024;-60
2021/05/04 10:26:14;;;;;;;5.50;0.98;;;23.90;91.90;;;;;;5104525;28;20095;-57
2021/05/04 10:28:50;;;;;;;6.43;1.00;;;23.90;92.00;;;;;;5104364;28;20300;-55
2021/05/04 10:31:19;;;;;;;6.22;0.70;;;23.80;91.90;;;;;;5104211;28;20123;-57
2021/05/04 10:33:45;;;;;;;12.02;0.88;;;23.80;91.90;;;;;;5104308;28;20024;-56
2021/05/04 10:36:32;;;;;;;10.98;1.20;;;23.90;91.80;;;;;;5104207;28;20024;-59
2021/05/04 10:38:59;;;;;;;3.92;1.23;;;23.80;91.80;;;;;;5104389;28;20051;-56
2021/05/04 10:41:26;;;;;;;500.35;352.70;;;23.90;91.70;;;;;;5104240;28;20020;-55
2021/05/04 10:44:05;;;;;;;182.25;125.75;;;23.90;91.70;;;;;;5104188;28;20024;-54
2021/05/04 10:46:39;;;;;;;76.85;48.63;;;23.90;91.70;;;;;;5103960;28;20362;-56
2021/05/04 10:49:08;;;;;;;83.70;53.17;;;23.90;91.70;;;;;;5104294;28;20032;-55
2021/05/04 10:51:49;;;;;;;67.35;42.35;;;23.90;91.80;;;;;;5104183;28;20016;-57
2021/05/04 10:54:18;;;;;;;48.92;29.15;;;23.90;91.80;;;;;;5104195;28;20055;-57
2021/05/04 10:56:47;;;;;;;37.50;22.75;;;23.90;91.80;;;;;;5104121;28;20028;-56
2021/05/04 10:59:45;;;;;;;41.70;23.05;;;23.90;91.80;;;;;;5104299;28;20028;-56
2021/05/04 11:02:15;;;;;;;34.10;16.38;;;23.90;91.80;;;;;;5103889;28;20020;-57
2021/05/04 11:04:43;;;;;;;25.08;11.95;;;23.90;91.80;;;;;;5104043;28;20048;-55
2021/05/04 11:07:10;;;;;;;23.58;10.52;;;23.90;91.80;;;;;;5104165;28;20068;-59
2021/05/04 11:09:40;;;;;;;22.67;9.70;;;23.90;91.80;;;;;;5104345;28;20028;-55
2021/05/04 11:12:30;;;;;;;15.07;6.72;;;23.90;91.80;;;;;;5104089;28;20016;-50
2021/05/04 11:15:20;;;;;;;17.45;3.90;;;23.90;91.80;;;;;;5103617;28;20225;-47
2021/05/04 11:17:47;;;;;;;10.93;3.00;;;23.90;91.80;;;;;;5103728;28;20028;-53
2021/05/04 11:20:38;;;;;;;11.88;2.47;;;23.90;91.90;;;;;;5103878;28;20012;-51
2021/05/04 11:23:09;;;;;;;10.02;2.00;;;23.90;91.90;;;;;;5104107;28;20066;-49
2021/05/04 11:25:37;;;;;;;15.45;2.47;;;23.80;91.80;;;;;;5103826;28;20012;-47
2021/05/04 11:28:05;;;;;;;9.00;1.90;;;23.90;91.90;;;;;;5104019;28;20217;-49
2021/05/04 11:30:37;;;;;;;13.20;2.47;;;23.90;92.00;;;;;;5103775;28;20026;-51
2021/05/04 11:33:31;;;;;;;12.70;2.33;;;23.80;91.90;;;;;;5103865;28;20077;-58
2021/05/04 11:35:59;;;;;;;7.47;1.40;;;23.90;92.00;;;;;;5104078;28;20020;-53
2021/05/04 11:38:27;;;;;;;10.90;1.55;;;23.90;91.90;;;;;;5103755;28;20020;-54
2021/05/04 11:40:54;;;;;;;12.70;1.38;;;23.90;91.90;;;;;;5103734;28;20020;-58
2021/05/04 11:43:22;;;;;;;14.77;1.75;;;23.90;91.90;;;;;;5103844;28;20035;-54
2021/05/04 11:45:50;;;;;;;8.60;1.40;;;23.90;91.90;;;;;;5104045;28;20310;-54
2021/05/04 11:48:18;;;;;;;10.90;1.52;;;24.00;91.90;;;;;;5103764;28;20095;-55
2021/05/04 11:50:51;;;;;;;14.07;2.08;;;24.00;91.90;;;;;;5103841;28;20228;-56
2021/05/04 11:53:19;;;;;;;9.30;1.42;;;24.00;91.80;;;;;;5103999;28;20101;-56
2021/05/04 11:55:53;;;;;;;8.75;1.17;;;24.10;91.80;;;;;;5103747;28;20024;-55
2021/05/04 11:58:24;;;;;;;6.55;1.17;;;24.10;91.60;;;;;;5103835;28;20024;-54
2021/05/04 12:01:07;;;;;;;12.98;1.20;;;24.10;91.80;;;;;;5107586;28;20291;-55
2021/05/04 12:03:34;;;;;;;7.78;1.40;;;24.20;91.60;;;;;;5107361;28;20024;-53
2021/05/04 12:06:04;;;;;;;14.95;1.48;;;24.20;91.60;;;;;;5107114;28;20106;-53
2021/05/04 12:08:31;;;;;;;9.32;1.90;;;24.20;91.50;;;;;;5107732;28;20189;-52
2021/05/04 12:10:58;;;;;;;11.45;1.48;;;24.30;91.50;;;;;;5107280;28;20212;-58
2021/05/04 12:13:27;;;;;;;7.35;1.40;;;24.30;91.50;;;;;;5107382;28;20426;-54
2021/05/04 12:16:02;;;;;;;8.18;1.23;;;24.30;91.50;;;;;;5107335;28;20251;-55
2021/05/04 12:18:33;;;;;;;10.27;1.48;;;24.40;91.40;;;;;;5106727;28;20091;-53
2021/05/04 12:21:03;;;;;;;11.02;1.63;;;24.40;91.30;;;;;;5106967;28;20020;-51
2021/05/04 12:23:43;;;;;;;8.18;1.88;;;24.40;91.30;;;;;;5107061;28;20027;-55
2021/05/04 12:26:19;;;;;;;6.95;2.20;;;24.50;91.30;;;;;;5106655;28;20016;-53
2021/05/04 12:28:56;;;;;;;6.18;1.77;;;24.50;91.20;;;;;;5107225;28;20035;-53
2021/05/04 12:31:32;;;;;;;5.90;1.45;;;24.50;91.20;;;;;;5107133;28;20030;-52
2021/05/04 12:33:59;;;;;;;9.18;1.40;;;24.60;91.20;;;;;;5107794;28;20035;-54
2021/05/04 12:39:24;;;;;;;11.65;1.75;;;24.70;91.10;;;;;;5107605;28;20035;-51
2021/05/04 12:41:53;;;;;;;17.88;2.08;;;24.70;91.20;;;;;;5106606;28;20220;-48
2021/05/04 12:44:26;;;;;;;23.88;2.65;;;24.80;91.10;;;;;;5107043;28;20039;-57
2021/05/04 12:46:59;;;;;;;14.57;1.95;;;24.80;91.10;;;;;;5106533;28;20020;-51
2021/05/04 12:49:38;;;;;;;8.57;1.40;;;24.90;91.10;;;;;;5107057;28;20249;-54
2021/05/04 12:52:13;;;;;;;6.63;1.42;;;24.90;91.00;;;;;;5106466;28;20020;-53
2021/05/04 12:54:41;;;;;;;7.85;1.52;;;24.90;91.00;;;;;;5106860;28;20039;-53
2021/05/04 12:57:29;;;;;;;8.23;1.20;;;24.90;91.00;;;;;;5106745;28;20020;-52
2021/05/04 12:59:56;;;;;;;12.68;1.40;;;25.00;91.00;;;;;;5106936;28;20053;-57
2021/05/04 13:02:27;;;;;;;12.00;1.42;;;25.00;91.00;;;;;;5106481;28;20020;-51
2021/05/04 13:07:54;;;;;;;5.80;0.90;;;25.10;91.00;;;;;;5106586;28;20225;-53